sensor_id;sensor_type;location;lat;lon;timestamp;pressure;altitude;pressure_sealevel;temperature;humidity
83185;BME280;73080;48.768;11.528;2024-03-02T00:00:07;96044.25;;;6.96;89.51
83185;BME280;73080;48.768;11.528;2024-03-02T00:02:33;96047.84;;;6.90;89.18
83185;BME280;73080;48.768;11.528;2024-03-02T00:04:58;96041.97;;;6.78;90.04
83185;BME280;73080;48.768;11.528;2024-03-02T00:07:23;96048.00;;;6.83;90.23
83185;BME280;73080;48.768;11.528;2024-03-02T00:09:53;96052.59;;;6.76;90.61
83185;BME280;73080;48.768;11.528;2024-03-02T00:12:18;96045.03;;;6.75;90.88
83185;BME280;73080;48.768;11.528;2024-03-02T00:14:44;96048.66;;;6.74;90.65
83185;BME280;73080;48.768;11.528;2024-03-02T00:17:25;96037.16;;;6.70;90.60
83185;BME280;73080;48.768;11.528;2024-03-02T00:19:51;96042.84;;;6.67;90.69
83185;BME280;73080;48.768;11.528;2024-03-02T00:22:16;96046.97;;;6.63;90.93
83185;BME280;73080;48.768;11.528;2024-03-02T00:24:45;96038.81;;;6.59;90.84
83185;BME280;73080;48.768;11.528;2024-03-02T00:27:12;96046.22;;;6.67;90.94
83185;BME280;73080;48.768;11.528;2024-03-02T00:29:40;96037.72;;;6.55;90.84
83185;BME280;73080;48.768;11.528;2024-03-02T00:32:13;96037.00;;;6.59;90.80
83185;BME280;73080;48.768;11.528;2024-03-02T00:34:41;96033.06;;;6.57;90.41
83185;BME280;73080;48.768;11.528;2024-03-02T00:37:06;96035.97;;;6.60;90.80
83185;BME280;73080;48.768;11.528;2024-03-02T00:39:35;96041.97;;;6.61;90.51
83185;BME280;73080;48.768;11.528;2024-03-02T00:42:00;96034.88;;;6.56;90.94
83185;BME280;73080;48.768;11.528;2024-03-02T00:44:25;96031.50;;;6.39;90.98
83185;BME280;73080;48.768;11.528;2024-03-02T00:46:54;96029.59;;;6.51;91.58
83185;BME280;73080;48.768;11.528;2024-03-02T00:49:22;96024.22;;;6.41;91.28
83185;BME280;73080;48.768;11.528;2024-03-02T00:51:50;96023.09;;;6.54;90.86
83185;BME280;73080;48.768;11.528;2024-03-02T00:54:22;96037.25;;;6.58;90.86
83185;BME280;73080;48.768;11.528;2024-03-02T00:56:54;96037.00;;;6.59;90.51
83185;BME280;73080;48.768;11.528;2024-03-02T00:59:20;96030.81;;;6.66;90.62
83185;BME280;73080;48.768;11.528;2024-03-02T01:01:47;96026.56;;;6.59;90.86
83185;BME280;73080;48.768;11.528;2024-03-02T01:04:13;96034.31;;;6.54;90.83
83185;BME280;73080;48.768;11.528;2024-03-02T01:06:38;96028.97;;;6.44;91.30
83185;BME280;73080;48.768;11.528;2024-03-02T01:09:03;96029.22;;;6.43;91.14
83185;BME280;73080;48.768;11.528;2024-03-02T01:11:32;96030.53;;;6.45;91.37
83185;BME280;73080;48.768;11.528;2024-03-02T01:13:57;96033.16;;;6.45;90.71
83185;BME280;73080;48.768;11.528;2024-03-02T01:16:22;96031.19;;;6.36;91.20
83185;BME280;73080;48.768;11.528;2024-03-02T01:18:48;96045.16;;;6.46;90.90
83185;BME280;73080;48.768;11.528;2024-03-02T01:21:16;96040.88;;;6.57;90.33
83185;BME280;73080;48.768;11.528;2024-03-02T01:23:41;96043.00;;;6.60;89.96
83185;BME280;73080;48.768;11.528;2024-03-02T01:26:07;96047.69;;;6.58;89.34
83185;BME280;73080;48.768;11.528;2024-03-02T01:28:33;96046.34;;;6.55;89.27
83185;BME280;73080;48.768;11.528;2024-03-02T01:30:59;96044.56;;;6.61;89.38
83185;BME280;73080;48.768;11.528;2024-03-02T01:33:24;96043.97;;;6.54;89.15
83185;BME280;73080;48.768;11.528;2024-03-02T01:35:49;96046.81;;;6.52;89.35
83185;BME280;73080;48.768;11.528;2024-03-02T01:38:15;96046.88;;;6.57;89.16
83185;BME280;73080;48.768;11.528;2024-03-02T01:40:43;96041.84;;;6.51;89.51
83185;BME280;73080;48.768;11.528;2024-03-02T01:43:09;96031.34;;;6.29;89.76
83185;BME280;73080;48.768;11.528;2024-03-02T01:45:35;96037.25;;;6.41;90.32
83185;BME280;73080;48.768;11.528;2024-03-02T01:48:00;96033.81;;;6.36;90.28
83185;BME280;73080;48.768;11.528;2024-03-02T01:50:32;96033.63;;;6.42;90.04
83185;BME280;73080;48.768;11.528;2024-03-02T01:52:59;96031.19;;;6.36;89.74
83185;BME280;73080;48.768;11.528;2024-03-02T01:55:24;96035.91;;;6.39;89.71
83185;BME280;73080;48.768;11.528;2024-03-02T01:57:50;96039.22;;;6.51;89.64
83185;BME280;73080;48.768;11.528;2024-03-02T02:00:17;96035.09;;;6.55;89.44
83185;BME280;73080;48.768;11.528;2024-03-02T02:02:43;96036.53;;;6.46;89.19
83185;BME280;73080;48.768;11.528;2024-03-02T02:05:08;96031.19;;;6.36;89.22
83185;BME280;73080;48.768;11.528;2024-03-02T02:07:35;96039.06;;;6.41;89.58
83185;BME280;73080;48.768;11.528;2024-03-02T02:10:00;96033.22;;;6.50;89.49
83185;BME280;73080;48.768;11.528;2024-03-02T02:12:25;96035.22;;;6.43;89.96
83185;BME280;73080;48.768;11.528;2024-03-02T02:14:54;96026.28;;;6.39;89.55
83185;BME280;73080;48.768;11.528;2024-03-02T02:17:20;96021.22;;;6.32;90.16
83185;BME280;73080;48.768;11.528;2024-03-02T02:19:48;96023.66;;;6.39;90.20
83185;BME280;73080;48.768;11.528;2024-03-02T02:22:13;96032.34;;;6.45;90.54
83185;BME280;73080;48.768;11.528;2024-03-02T02:24:45;96031.09;;;6.30;90.58
83185;BME280;73080;48.768;11.528;2024-03-02T02:27:10;96028.13;;;6.22;90.74
83185;BME280;73080;48.768;11.528;2024-03-02T02:29:36;96026.84;;;6.24;90.81
83185;BME280;73080;48.768;11.528;2024-03-02T02:32:01;96029.00;;;6.27;91.20
83185;BME280;73080;48.768;11.528;2024-03-02T02:34:26;96025.13;;;6.13;91.52
83185;BME280;73080;48.768;11.528;2024-03-02T02:36:52;96021.94;;;6.11;91.48
83185;BME280;73080;48.768;11.528;2024-03-02T02:39:20;96021.50;;;6.14;91.08
83185;BME280;73080;48.768;11.528;2024-03-02T02:41:46;96011.44;;;6.06;91.15
83185;BME280;73080;48.768;11.528;2024-03-02T02:44:11;96012.88;;;6.14;91.46
83185;BME280;73080;48.768;11.528;2024-03-02T02:46:40;96012.09;;;6.13;90.61
83185;BME280;73080;48.768;11.528;2024-03-02T02:49:08;96011.13;;;6.19;90.65
83185;BME280;73080;48.768;11.528;2024-03-02T02:51:34;96009.09;;;6.21;90.75
83185;BME280;73080;48.768;11.528;2024-03-02T02:53:59;96006.72;;;6.03;90.45
83185;BME280;73080;48.768;11.528;2024-03-02T02:56:25;95998.88;;;6.20;91.01
83185;BME280;73080;48.768;11.528;2024-03-02T02:58:53;95998.97;;;6.08;90.76
83185;BME280;73080;48.768;11.528;2024-03-02T03:01:19;95999.53;;;6.10;91.53
83185;BME280;73080;48.768;11.528;2024-03-02T03:03:45;96002.13;;;6.10;91.14
83185;BME280;73080;48.768;11.528;2024-03-02T03:06:10;96002.66;;;6.12;91.04
83185;BME280;73080;48.768;11.528;2024-03-02T03:08:36;96002.59;;;6.24;90.89
83185;BME280;73080;48.768;11.528;2024-03-02T03:11:02;96002.75;;;6.17;90.41
83185;BME280;73080;48.768;11.528;2024-03-02T03:13:27;96001.81;;;6.07;90.90
83185;BME280;73080;48.768;11.528;2024-03-02T03:15:52;96003.72;;;6.28;90.51
83185;BME280;73080;48.768;11.528;2024-03-02T03:18:18;96009.31;;;6.20;90.49
83185;BME280;73080;48.768;11.528;2024-03-02T03:20:43;96010.56;;;6.34;90.18
83185;BME280;73080;48.768;11.528;2024-03-02T03:23:08;96009.59;;;6.40;89.88
83185;BME280;73080;48.768;11.528;2024-03-02T03:25:37;96016.09;;;6.38;89.42
83185;BME280;73080;48.768;11.528;2024-03-02T03:28:05;96014.75;;;6.35;89.94
83185;BME280;73080;48.768;11.528;2024-03-02T03:30:30;96020.28;;;6.39;89.42
83185;BME280;73080;48.768;11.528;2024-03-02T03:32:56;96012.22;;;6.40;89.43
83185;BME280;73080;48.768;11.528;2024-03-02T03:35:21;96015.38;;;6.42;88.71
83185;BME280;73080;48.768;11.528;2024-03-02T03:37:46;96015.13;;;6.27;88.67
83185;BME280;73080;48.768;11.528;2024-03-02T03:40:15;96025.50;;;6.39;88.59
83185;BME280;73080;48.768;11.528;2024-03-02T03:42:40;96026.59;;;6.43;88.77
83185;BME280;73080;48.768;11.528;2024-03-02T03:45:07;96029.13;;;6.38;88.16
83185;BME280;73080;48.768;11.528;2024-03-02T03:47:32;96025.81;;;6.42;88.60
83185;BME280;73080;48.768;11.528;2024-03-02T03:50:00;96037.91;;;6.31;88.66
83185;BME280;73080;48.768;11.528;2024-03-02T03:52:26;96033.72;;;6.30;88.68
83185;BME280;73080;48.768;11.528;2024-03-02T03:54:51;96040.66;;;6.25;89.17
83185;BME280;73080;48.768;11.528;2024-03-02T03:57:17;96040.41;;;6.26;89.26
83185;BME280;73080;48.768;11.528;2024-03-02T03:59:43;96034.50;;;6.31;89.21
83185;BME280;73080;48.768;11.528;2024-03-02T04:02:08;96039.00;;;6.36;89.10
83185;BME280;73080;48.768;11.528;2024-03-02T04:04:34;96035.84;;;6.33;88.90
83185;BME280;73080;48.768;11.528;2024-03-02T04:07:00;96042.81;;;6.28;88.80
83185;BME280;73080;48.768;11.528;2024-03-02T04:09:25;96044.53;;;6.22;89.76
83185;BME280;73080;48.768;11.528;2024-03-02T04:11:51;96047.59;;;6.19;89.41
83185;BME280;73080;48.768;11.528;2024-03-02T04:14:16;96048.25;;;6.26;89.59
83185;BME280;73080;48.768;11.528;2024-03-02T04:16:44;96052.44;;;6.27;89.53
83185;BME280;73080;48.768;11.528;2024-03-02T04:19:10;96055.06;;;6.27;89.83
83185;BME280;73080;48.768;11.528;2024-03-02T04:21:35;96056.06;;;6.26;90.01
83185;BME280;73080;48.768;11.528;2024-03-02T04:24:01;96051.88;;;6.25;89.94
83185;BME280;73080;48.768;11.528;2024-03-02T04:26:29;96063.34;;;6.24;90.45
83185;BME280;73080;48.768;11.528;2024-03-02T04:28:54;96059.25;;;6.28;90.07
83185;BME280;73080;48.768;11.528;2024-03-02T04:31:20;96066.28;;;6.28;89.94
83185;BME280;73080;48.768;11.528;2024-03-02T04:33:49;96058.59;;;6.38;89.32
83185;BME280;73080;48.768;11.528;2024-03-02T04:36:14;96065.13;;;6.41;88.85
83185;BME280;73080;48.768;11.528;2024-03-02T04:38:39;96062.31;;;6.25;88.81
83185;BME280;73080;48.768;11.528;2024-03-02T04:41:06;96073.38;;;6.16;89.94
83185;BME280;73080;48.768;11.528;2024-03-02T04:43:32;96075.09;;;6.27;89.47
83185;BME280;73080;48.768;11.528;2024-03-02T04:45:58;96066.97;;;6.23;89.60
83185;BME280;73080;48.768;11.528;2024-03-02T04:48:24;96062.53;;;6.41;88.86
83185;BME280;73080;48.768;11.528;2024-03-02T04:50:49;96064.94;;;6.42;88.43
83185;BME280;73080;48.768;11.528;2024-03-02T04:53:15;96070.53;;;6.51;88.15
83185;BME280;73080;48.768;11.528;2024-03-02T04:55:40;96069.56;;;6.57;88.10
83185;BME280;73080;48.768;11.528;2024-03-02T04:58:05;96077.69;;;6.60;87.75
83185;BME280;73080;48.768;11.528;2024-03-02T05:00:34;96075.88;;;6.61;87.51
83185;BME280;73080;48.768;11.528;2024-03-02T05:03:03;96077.16;;;6.58;87.48
83185;BME280;73080;48.768;11.528;2024-03-02T05:05:28;96071.31;;;6.51;87.96
83185;BME280;73080;48.768;11.528;2024-03-02T05:07:54;96075.19;;;6.49;88.37
83185;BME280;73080;48.768;11.528;2024-03-02T05:10:19;96074.53;;;6.58;87.79
83185;BME280;73080;48.768;11.528;2024-03-02T05:12:47;96079.91;;;6.52;87.72
83185;BME280;73080;48.768;11.528;2024-03-02T05:15:14;96081.81;;;6.56;87.49
83185;BME280;73080;48.768;11.528;2024-03-02T05:17:40;96076.84;;;6.38;88.05
83185;BME280;73080;48.768;11.528;2024-03-02T05:20:06;96077.53;;;6.33;88.04
83185;BME280;73080;48.768;11.528;2024-03-02T05:22:32;96076.28;;;6.36;88.36
83185;BME280;73080;48.768;11.528;2024-03-02T05:24:57;96075.34;;;6.25;89.03
83185;BME280;73080;48.768;11.528;2024-03-02T05:27:23;96076.06;;;6.38;88.46
83185;BME280;73080;48.768;11.528;2024-03-02T05:29:51;96074.88;;;6.28;89.00
83185;BME280;73080;48.768;11.528;2024-03-02T05:32:16;96081.19;;;6.32;88.40
83185;BME280;73080;48.768;11.528;2024-03-02T05:34:41;96075.41;;;6.30;88.51
83185;BME280;73080;48.768;11.528;2024-03-02T05:37:07;96079.50;;;6.10;89.03
83185;BME280;73080;48.768;11.528;2024-03-02T05:39:32;96077.53;;;6.17;89.31
83185;BME280;73080;48.768;11.528;2024-03-02T05:41:57;96076.56;;;6.06;88.93
83185;BME280;73080;48.768;11.528;2024-03-02T05:44:22;96074.31;;;6.10;89.23
83185;BME280;73080;48.768;11.528;2024-03-02T05:46:48;96073.81;;;5.96;89.46
83185;BME280;73080;48.768;11.528;2024-03-02T05:49:13;96072.31;;;5.71;89.93
83185;BME280;73080;48.768;11.528;2024-03-02T05:51:41;96080.44;;;5.75;89.98
83185;BME280;73080;48.768;11.528;2024-03-02T05:54:07;96069.63;;;5.66;90.74
83185;BME280;73080;48.768;11.528;2024-03-02T05:56:32;96085.69;;;5.63;90.64
83185;BME280;73080;48.768;11.528;2024-03-02T05:58:58;96082.66;;;5.66;90.40
83185;BME280;73080;48.768;11.528;2024-03-02T06:01:23;96082.59;;;5.78;91.00
83185;BME280;73080;48.768;11.528;2024-03-02T06:03:48;96081.56;;;5.79;90.22
83185;BME280;73080;48.768;11.528;2024-03-02T06:06:14;96086.84;;;5.84;90.26
83185;BME280;73080;48.768;11.528;2024-03-02T06:08:39;96087.56;;;5.79;89.96
83185;BME280;73080;48.768;11.528;2024-03-02T06:11:04;96086.84;;;5.84;89.47
83185;BME280;73080;48.768;11.528;2024-03-02T06:13:29;96080.03;;;5.66;89.91
83185;BME280;73080;48.768;11.528;2024-03-02T06:15:55;96079.50;;;5.64;90.02
83185;BME280;73080;48.768;11.528;2024-03-02T06:18:20;96076.03;;;5.75;89.94
83185;BME280;73080;48.768;11.528;2024-03-02T06:20:45;96085.81;;;5.97;89.91
83185;BME280;73080;48.768;11.528;2024-03-02T06:23:11;96088.09;;;5.93;89.59
83185;BME280;73080;48.768;11.528;2024-03-02T06:25:36;96080.16;;;5.88;89.57
83185;BME280;73080;48.768;11.528;2024-03-02T06:28:02;96079.81;;;5.96;89.55
83185;BME280;73080;48.768;11.528;2024-03-02T06:30:27;96089.69;;;6.11;88.79
83185;BME280;73080;48.768;11.528;2024-03-02T06:32:55;96082.66;;;6.12;88.38
83185;BME280;73080;48.768;11.528;2024-03-02T06:35:21;96083.53;;;6.00;88.96
83185;BME280;73080;48.768;11.528;2024-03-02T06:37:46;96084.00;;;5.97;89.43
83185;BME280;73080;48.768;11.528;2024-03-02T06:40:14;96087.06;;;5.94;89.21
83185;BME280;73080;48.768;11.528;2024-03-02T06:42:40;96085.25;;;5.95;88.90
83185;BME280;73080;48.768;11.528;2024-03-02T06:45:05;96083.16;;;6.09;88.30
83185;BME280;73080;48.768;11.528;2024-03-02T06:47:31;96078.31;;;6.00;88.49
83185;BME280;73080;48.768;11.528;2024-03-02T06:49:56;96087.09;;;6.11;88.38
83185;BME280;73080;48.768;11.528;2024-03-02T06:52:22;96083.75;;;5.99;89.01
83185;BME280;73080;48.768;11.528;2024-03-02T06:54:47;96079.91;;;6.01;89.12
83185;BME280;73080;48.768;11.528;2024-03-02T06:57:12;96081.63;;;5.96;89.05
83185;BME280;73080;48.768;11.528;2024-03-02T06:59:37;96084.94;;;5.91;89.08
83185;BME280;73080;48.768;11.528;2024-03-02T07:02:03;96086.06;;;5.95;89.38
83185;BME280;73080;48.768;11.528;2024-03-02T07:04:28;96083.69;;;5.82;89.65
83185;BME280;73080;48.768;11.528;2024-03-02T07:06:54;96084.03;;;6.14;88.90
83185;BME280;73080;48.768;11.528;2024-03-02T07:09:19;96082.28;;;6.20;88.30
83185;BME280;73080;48.768;11.528;2024-03-02T07:11:44;96091.78;;;6.43;87.24
83185;BME280;73080;48.768;11.528;2024-03-02T07:14:10;96081.03;;;6.39;87.38
83185;BME280;73080;48.768;11.528;2024-03-02T07:16:37;96087.03;;;6.40;87.97
83185;BME280;73080;48.768;11.528;2024-03-02T07:19:02;96086.47;;;6.38;88.08
83185;BME280;73080;48.768;11.528;2024-03-02T07:21:28;96089.63;;;6.40;87.71
83185;BME280;73080;48.768;11.528;2024-03-02T07:23:53;96086.34;;;5.99;89.29
83185;BME280;73080;48.768;11.528;2024-03-02T07:26:18;96090.00;;;5.98;90.00
83185;BME280;73080;48.768;11.528;2024-03-02T07:28:46;96091.13;;;5.90;91.27
83185;BME280;73080;48.768;11.528;2024-03-02T07:31:11;96095.66;;;5.38;93.07
83185;BME280;73080;48.768;11.528;2024-03-02T07:33:36;96098.03;;;5.68;92.37
83185;BME280;73080;48.768;11.528;2024-03-02T07:36:02;96092.44;;;5.76;92.54
83185;BME280;73080;48.768;11.528;2024-03-02T07:38:30;96100.47;;;5.86;91.87
83185;BME280;73080;48.768;11.528;2024-03-02T07:40:59;96106.31;;;5.65;92.36
83185;BME280;73080;48.768;11.528;2024-03-02T07:43:24;96107.56;;;5.62;93.39
83185;BME280;73080;48.768;11.528;2024-03-02T07:45:49;96112.22;;;5.60;93.66
83185;BME280;73080;48.768;11.528;2024-03-02T07:48:15;96113.53;;;5.74;93.47
83185;BME280;73080;48.768;11.528;2024-03-02T07:50:40;96115.00;;;5.70;93.16
83185;BME280;73080;48.768;11.528;2024-03-02T07:53:07;96123.97;;;5.63;93.91
83185;BME280;73080;48.768;11.528;2024-03-02T07:55:33;96129.56;;;5.83;93.32
83185;BME280;73080;48.768;11.528;2024-03-02T07:58:00;96128.00;;;5.70;94.39
83185;BME280;73080;48.768;11.528;2024-03-02T08:00:26;96125.72;;;5.57;94.16
83185;BME280;73080;48.768;11.528;2024-03-02T08:02:51;96130.97;;;5.74;94.23
83185;BME280;73080;48.768;11.528;2024-03-02T08:05:18;96128.63;;;6.01;93.48
83185;BME280;73080;48.768;11.528;2024-03-02T08:07:43;96129.31;;;5.85;94.66
83185;BME280;73080;48.768;11.528;2024-03-02T08:10:09;96133.66;;;5.39;95.18
83185;BME280;73080;48.768;11.528;2024-03-02T08:12:34;96138.75;;;5.86;94.92
83185;BME280;73080;48.768;11.528;2024-03-02T08:15:00;96132.94;;;5.95;95.25
83185;BME280;73080;48.768;11.528;2024-03-02T08:17:25;96136.97;;;5.74;95.66
83185;BME280;73080;48.768;11.528;2024-03-02T08:19:53;96141.16;;;5.64;95.22
83185;BME280;73080;48.768;11.528;2024-03-02T08:22:23;96135.50;;;5.67;95.00
83185;BME280;73080;48.768;11.528;2024-03-02T08:24:48;96145.19;;;5.95;95.99
83185;BME280;73080;48.768;11.528;2024-03-02T08:27:13;96148.38;;;5.85;94.42
83185;BME280;73080;48.768;11.528;2024-03-02T08:29:39;96146.78;;;5.84;94.82
83185;BME280;73080;48.768;11.528;2024-03-02T08:32:05;96153.66;;;6.02;94.51
83185;BME280;73080;48.768;11.528;2024-03-02T08:34:30;96142.34;;;5.96;94.82
83185;BME280;73080;48.768;11.528;2024-03-02T08:36:59;96150.84;;;5.92;94.42
83185;BME280;73080;48.768;11.528;2024-03-02T08:39:24;96147.25;;;5.81;94.80
83185;BME280;73080;48.768;11.528;2024-03-02T08:41:50;96163.03;;;5.63;95.28
83185;BME280;73080;48.768;11.528;2024-03-02T08:44:16;96149.50;;;5.77;94.93
83185;BME280;73080;48.768;11.528;2024-03-02T08:46:41;96155.88;;;5.70;95.29
83185;BME280;73080;48.768;11.528;2024-03-02T08:49:07;96158.13;;;5.78;95.69
83185;BME280;73080;48.768;11.528;2024-03-02T08:51:33;96160.03;;;5.94;95.33
83185;BME280;73080;48.768;11.528;2024-03-02T08:53:58;96159.53;;;5.97;94.91
83185;BME280;73080;48.768;11.528;2024-03-02T08:56:24;96156.34;;;6.07;94.49
83185;BME280;73080;48.768;11.528;2024-03-02T08:58:51;96154.41;;;6.14;93.48
83185;BME280;73080;48.768;11.528;2024-03-02T09:01:17;96155.53;;;6.35;92.95
83185;BME280;73080;48.768;11.528;2024-03-02T09:03:43;96158.84;;;6.47;92.79
83185;BME280;73080;48.768;11.528;2024-03-02T09:06:08;96161.16;;;6.44;92.49
83185;BME280;73080;48.768;11.528;2024-03-02T09:08:33;96154.50;;;6.36;92.86
83185;BME280;73080;48.768;11.528;2024-03-02T09:11:02;96161.84;;;6.39;91.95
83185;BME280;73080;48.768;11.528;2024-03-02T09:13:28;96160.66;;;6.47;92.92
83185;BME280;73080;48.768;11.528;2024-03-02T09:15:54;96169.22;;;6.59;90.96
83185;BME280;73080;48.768;11.528;2024-03-02T09:18:19;96165.53;;;7.10;91.32
83185;BME280;73080;48.768;11.528;2024-03-02T09:20:44;96161.22;;;6.99;91.39
83185;BME280;73080;48.768;11.528;2024-03-02T09:23:09;96156.88;;;7.05;90.34
83185;BME280;73080;48.768;11.528;2024-03-02T09:25:35;96161.34;;;7.26;88.82
83185;BME280;73080;48.768;11.528;2024-03-02T09:28:00;96160.13;;;7.12;88.00
83185;BME280;73080;48.768;11.528;2024-03-02T09:30:25;96166.59;;;7.48;88.76
83185;BME280;73080;48.768;11.528;2024-03-02T09:32:51;96164.94;;;7.64;89.06
83185;BME280;73080;48.768;11.528;2024-03-02T09:35:19;96160.75;;;7.63;88.31
83185;BME280;73080;48.768;11.528;2024-03-02T09:37:44;96165.41;;;7.39;88.40
83185;BME280;73080;48.768;11.528;2024-03-02T09:40:16;96156.69;;;7.11;88.52
83185;BME280;73080;48.768;11.528;2024-03-02T09:42:41;96158.19;;;7.46;88.26
83185;BME280;73080;48.768;11.528;2024-03-02T09:45:08;96150.31;;;7.63;86.86
83185;BME280;73080;48.768;11.528;2024-03-02T09:47:34;96154.50;;;7.64;85.09
83185;BME280;73080;48.768;11.528;2024-03-02T09:49:59;96150.56;;;7.83;85.87
83185;BME280;73080;48.768;11.528;2024-03-02T09:52:24;96156.41;;;7.68;84.53
83185;BME280;73080;48.768;11.528;2024-03-02T09:54:50;96163.47;;;7.51;84.96
83185;BME280;73080;48.768;11.528;2024-03-02T09:57:15;96152.81;;;8.02;84.95
83185;BME280;73080;48.768;11.528;2024-03-02T09:59:41;96153.41;;;7.60;85.23
83185;BME280;73080;48.768;11.528;2024-03-02T10:02:07;96156.13;;;7.92;85.56
83185;BME280;73080;48.768;11.528;2024-03-02T10:04:33;96150.97;;;7.97;85.28
83185;BME280;73080;48.768;11.528;2024-03-02T10:07:12;96155.44;;;8.02;84.42
83185;BME280;73080;48.768;11.528;2024-03-02T10:09:37;96150.53;;;8.10;82.46
83185;BME280;73080;48.768;11.528;2024-03-02T10:12:08;96145.31;;;7.83;84.46
83185;BME280;73080;48.768;11.528;2024-03-02T10:14:33;96143.53;;;8.11;84.43
83185;BME280;73080;48.768;11.528;2024-03-02T10:17:06;96143.16;;;8.29;80.97
83185;BME280;73080;48.768;11.528;2024-03-02T10:19:36;96136.69;;;8.64;81.73
83185;BME280;73080;48.768;11.528;2024-03-02T10:22:02;96138.00;;;8.66;79.46
83185;BME280;73080;48.768;11.528;2024-03-02T10:24:38;96137.66;;;8.25;81.82
83185;BME280;73080;48.768;11.528;2024-03-02T10:27:16;96136.66;;;8.32;80.71
83185;BME280;73080;48.768;11.528;2024-03-02T10:29:42;96132.94;;;8.27;80.27
83185;BME280;73080;48.768;11.528;2024-03-02T10:32:11;96140.69;;;8.44;79.44
83185;BME280;73080;48.768;11.528;2024-03-02T10:34:40;96129.34;;;8.34;79.84
83185;BME280;73080;48.768;11.528;2024-03-02T10:37:06;96124.91;;;8.61;78.73
83185;BME280;73080;48.768;11.528;2024-03-02T10:39:31;96129.19;;;8.45;79.13
83185;BME280;73080;48.768;11.528;2024-03-02T10:41:58;96125.56;;;8.46;79.19
83185;BME280;73080;48.768;11.528;2024-03-02T10:44:25;96127.66;;;8.49;79.65
83185;BME280;73080;48.768;11.528;2024-03-02T10:46:52;96128.09;;;9.11;79.24
83185;BME280;73080;48.768;11.528;2024-03-02T10:49:19;96121.31;;;9.15;77.76
83185;BME280;73080;48.768;11.528;2024-03-02T10:51:48;96122.44;;;9.34;76.10
83185;BME280;73080;48.768;11.528;2024-03-02T10:54:14;96116.13;;;9.25;76.15
83185;BME280;73080;48.768;11.528;2024-03-02T10:56:42;96115.13;;;9.36;76.34
83185;BME280;73080;48.768;11.528;2024-03-02T10:59:26;96112.56;;;8.99;77.30
83185;BME280;73080;48.768;11.528;2024-03-02T11:01:56;96106.25;;;8.95;77.20
83185;BME280;73080;48.768;11.528;2024-03-02T11:04:24;96108.59;;;9.39;75.82
83185;BME280;73080;48.768;11.528;2024-03-02T11:06:59;96107.38;;;9.09;77.68
83185;BME280;73080;48.768;11.528;2024-03-02T11:09:27;96108.03;;;9.31;77.20
83185;BME280;73080;48.768;11.528;2024-03-02T11:14:25;96099.03;;;9.12;76.75
83185;BME280;73080;48.768;11.528;2024-03-02T11:16:51;96092.19;;;9.06;77.78
83185;BME280;73080;48.768;11.528;2024-03-02T11:19:20;96087.19;;;8.99;76.86
83185;BME280;73080;48.768;11.528;2024-03-02T11:21:46;96090.91;;;9.76;76.95
83185;BME280;73080;48.768;11.528;2024-03-02T11:26:52;96078.75;;;9.40;76.27
83185;BME280;73080;48.768;11.528;2024-03-02T11:32:06;96062.41;;;9.22;76.23
83185;BME280;73080;48.768;11.528;2024-03-02T11:34:35;96065.03;;;9.22;76.22
83185;BME280;73080;48.768;11.528;2024-03-02T11:37:04;96061.19;;;9.40;76.47
83185;BME280;73080;48.768;11.528;2024-03-02T11:39:30;96056.25;;;9.64;76.08
83185;BME280;73080;48.768;11.528;2024-03-02T11:41:59;96052.34;;;9.72;75.42
83185;BME280;73080;48.768;11.528;2024-03-02T11:44:28;96047.16;;;9.87;74.27
83185;BME280;73080;48.768;11.528;2024-03-02T11:47:08;96055.78;;;9.04;75.43
83185;BME280;73080;48.768;11.528;2024-03-02T11:49:42;96046.00;;;9.47;75.27
83185;BME280;73080;48.768;11.528;2024-03-02T11:52:08;96039.19;;;9.51;74.30
83185;BME280;73080;48.768;11.528;2024-03-02T11:54:38;96042.78;;;9.25;74.94
83185;BME280;73080;48.768;11.528;2024-03-02T11:57:04;96043.09;;;9.39;75.99
83185;BME280;73080;48.768;11.528;2024-03-02T11:59:32;96028.47;;;9.48;75.48
83185;BME280;73080;48.768;11.528;2024-03-02T12:01:59;96028.22;;;9.59;73.54
83185;BME280;73080;48.768;11.528;2024-03-02T12:04:25;96032.47;;;10.11;73.54
83185;BME280;73080;48.768;11.528;2024-03-02T12:06:58;96025.31;;;9.51;75.14
83185;BME280;73080;48.768;11.528;2024-03-02T12:09:24;96022.75;;;9.86;74.66
83185;BME280;73080;48.768;11.528;2024-03-02T12:12:10;96015.38;;;9.53;75.01
83185;BME280;73080;48.768;11.528;2024-03-02T12:14:36;96010.38;;;9.56;75.06
83185;BME280;73080;48.768;11.528;2024-03-02T12:17:02;96005.19;;;9.77;74.69
83185;BME280;73080;48.768;11.528;2024-03-02T12:19:32;96007.84;;;10.38;73.27
83185;BME280;73080;48.768;11.528;2024-03-02T12:22:05;95997.34;;;10.33;72.85
83185;BME280;73080;48.768;11.528;2024-03-02T12:24:30;95993.66;;;10.49;71.77
83185;BME280;73080;48.768;11.528;2024-03-02T12:26:56;95984.78;;;10.25;71.19
83185;BME280;73080;48.768;11.528;2024-03-02T12:29:22;95993.41;;;10.35;69.62
83185;BME280;73080;48.768;11.528;2024-03-02T12:31:57;95986.84;;;10.48;71.21
83185;BME280;73080;48.768;11.528;2024-03-02T12:34:22;95987.41;;;10.30;72.32
83185;BME280;73080;48.768;11.528;2024-03-02T12:36:48;95989.47;;;10.48;72.59
83185;BME280;73080;48.768;11.528;2024-03-02T12:39:13;95980.00;;;10.52;69.08
83185;BME280;73080;48.768;11.528;2024-03-02T12:41:42;95977.91;;;10.59;71.01
83185;BME280;73080;48.768;11.528;2024-03-02T12:44:08;95972.13;;;10.57;70.18
83185;BME280;73080;48.768;11.528;2024-03-02T12:46:33;95965.78;;;10.79;69.29
83185;BME280;73080;48.768;11.528;2024-03-02T12:49:13;95963.25;;;10.17;72.51
83185;BME280;73080;48.768;11.528;2024-03-02T12:51:39;95967.72;;;10.22;73.18
83185;BME280;73080;48.768;11.528;2024-03-02T12:54:06;95955.84;;;10.65;72.44
83185;BME280;73080;48.768;11.528;2024-03-02T12:56:31;95953.53;;;10.38;72.07
83185;BME280;73080;48.768;11.528;2024-03-02T12:58:57;95955.78;;;10.86;72.37
83185;BME280;73080;48.768;11.528;2024-03-02T13:01:23;95948.00;;;10.50;72.52
83185;BME280;73080;48.768;11.528;2024-03-02T13:03:52;95944.09;;;10.27;72.02